sensor_id;sensor_type;location;lat;lon;timestamp;pressure;altitude;pressure_sealevel;temperature;humidity
35676;BME280;21790;42.668;23.298;2023-03-04T00:01:32;94718.75;;;12.36;52.39
35676;BME280;21790;42.668;23.298;2023-03-04T00:03:58;94719.44;;;12.46;52.25
35676;BME280;21790;42.668;23.298;2023-03-04T00:06:23;94724.63;;;12.29;52.62
35676;BME280;21790;42.668;23.298;2023-03-04T00:08:49;94716.44;;;12.35;52.19
35676;BME280;21790;42.668;23.298;2023-03-04T00:11:14;94724.34;;;12.51;52.10
35676;BME280;21790;42.668;23.298;2023-03-04T00:13:40;94718.03;;;12.50;52.31
35676;BME280;21790;42.668;23.298;2023-03-04T00:16:06;94717.63;;;12.43;52.34
35676;BME280;21790;42.668;23.298;2023-03-04T00:18:31;94717.84;;;12.54;52.04
35676;BME280;21790;42.668;23.298;2023-03-04T00:20:57;94710.44;;;12.36;52.57
35676;BME280;21790;42.668;23.298;2023-03-04T00:23:22;94685.72;;;12.24;52.62
35676;BME280;21790;42.668;23.298;2023-03-04T00:25:48;94714.19;;;12.48;52.17
35676;BME280;21790;42.668;23.298;2023-03-04T00:28:13;94702.81;;;12.46;52.29
35676;BME280;21790;42.668;23.298;2023-03-04T00:30:39;94703.16;;;12.39;52.42
35676;BME280;21790;42.668;23.298;2023-03-04T00:33:04;94706.66;;;12.48;52.37
35676;BME280;21790;42.668;23.298;2023-03-04T00:35:29;94706.13;;;12.59;51.84
35676;BME280;21790;42.668;23.298;2023-03-04T00:37:55;94704.56;;;12.58;51.76
35676;BME280;21790;42.668;23.298;2023-03-04T00:40:20;94698.63;;;12.50;52.19
35676;BME280;21790;42.668;23.298;2023-03-04T00:42:46;94698.69;;;12.41;52.25
35676;BME280;21790;42.668;23.298;2023-03-04T00:45:12;94707.94;;;12.38;52.30
35676;BME280;21790;42.668;23.298;2023-03-04T00:47:37;94706.13;;;12.35;52.45
35676;BME280;21790;42.668;23.298;2023-03-04T00:50:03;94705.34;;;12.35;52.39
35676;BME280;21790;42.668;23.298;2023-03-04T00:52:29;94702.13;;;12.36;52.33
35676;BME280;21790;42.668;23.298;2023-03-04T00:54:54;94702.25;;;12.42;52.22
35676;BME280;21790;42.668;23.298;2023-03-04T00:57:20;94701.69;;;12.29;52.42
35676;BME280;21790;42.668;23.298;2023-03-04T00:59:45;94695.22;;;12.32;52.24
35676;BME280;21790;42.668;23.298;2023-03-04T01:02:11;94697.28;;;12.46;51.86
35676;BME280;21790;42.668;23.298;2023-03-04T01:04:37;94698.94;;;12.29;52.42
35676;BME280;21790;42.668;23.298;2023-03-04T01:07:03;94701.81;;;12.34;52.08
35676;BME280;21790;42.668;23.298;2023-03-04T01:09:29;94699.47;;;12.42;52.24
35676;BME280;21790;42.668;23.298;2023-03-04T01:11:55;94699.00;;;12.43;52.09
35676;BME280;21790;42.668;23.298;2023-03-04T01:14:21;94693.16;;;12.41;52.31
35676;BME280;21790;42.668;23.298;2023-03-04T01:16:47;94690.97;;;12.45;52.16
35676;BME280;21790;42.668;23.298;2023-03-04T01:19:12;94688.06;;;12.40;52.16
35676;BME280;21790;42.668;23.298;2023-03-04T01:21:38;94682.63;;;12.31;52.23
35676;BME280;21790;42.668;23.298;2023-03-04T01:24:04;94691.31;;;12.38;51.96
35676;BME280;21790;42.668;23.298;2023-03-04T01:26:29;94692.16;;;12.30;52.31
35676;BME280;21790;42.668;23.298;2023-03-04T01:28:55;94685.59;;;12.42;51.63
35676;BME280;21790;42.668;23.298;2023-03-04T01:31:20;94682.47;;;12.49;51.63
35676;BME280;21790;42.668;23.298;2023-03-04T01:33:46;94685.88;;;12.44;51.72
35676;BME280;21790;42.668;23.298;2023-03-04T01:36:11;94671.72;;;12.27;52.07
35676;BME280;21790;42.668;23.298;2023-03-04T01:38:37;94681.31;;;12.41;51.74
35676;BME280;21790;42.668;23.298;2023-03-04T01:41:03;94663.13;;;12.40;51.34
35676;BME280;21790;42.668;23.298;2023-03-04T01:43:30;94668.00;;;12.30;51.87
35676;BME280;21790;42.668;23.298;2023-03-04T01:45:56;94663.72;;;12.44;51.35
35676;BME280;21790;42.668;23.298;2023-03-04T01:48:28;94663.25;;;12.60;51.08
35676;BME280;21790;42.668;23.298;2023-03-04T01:50:55;94665.63;;;12.38;51.27
35676;BME280;21790;42.668;23.298;2023-03-04T01:53:25;94663.41;;;12.27;51.59
35676;BME280;21790;42.668;23.298;2023-03-04T01:56:22;94665.25;;;12.45;51.29
35676;BME280;21790;42.668;23.298;2023-03-04T02:01:34;94659.47;;;12.34;50.75
35676;BME280;21790;42.668;23.298;2023-03-04T02:04:00;94663.34;;;12.12;51.60
35676;BME280;21790;42.668;23.298;2023-03-04T02:06:26;94655.09;;;12.03;51.58
35676;BME280;21790;42.668;23.298;2023-03-04T02:08:52;94661.75;;;12.21;51.19
35676;BME280;21790;42.668;23.298;2023-03-04T02:11:17;94662.75;;;12.08;51.49
35676;BME280;21790;42.668;23.298;2023-03-04T02:13:43;94660.00;;;12.08;51.68
35676;BME280;21790;42.668;23.298;2023-03-04T02:16:09;94644.53;;;12.16;51.11
35676;BME280;21790;42.668;23.298;2023-03-04T02:18:34;94651.25;;;12.25;51.17
35676;BME280;21790;42.668;23.298;2023-03-04T02:21:23;94649.38;;;12.45;50.55
35676;BME280;21790;42.668;23.298;2023-03-04T02:26:22;94654.16;;;12.45;50.77
35676;BME280;21790;42.668;23.298;2023-03-04T02:28:51;94653.94;;;12.34;50.80
35676;BME280;21790;42.668;23.298;2023-03-04T02:31:26;94657.38;;;12.29;51.11
35676;BME280;21790;42.668;23.298;2023-03-04T02:33:54;94645.78;;;12.15;51.33
35676;BME280;21790;42.668;23.298;2023-03-04T02:36:21;94646.56;;;12.16;51.27
35676;BME280;21790;42.668;23.298;2023-03-04T02:38:49;94650.25;;;12.13;51.25
35676;BME280;21790;42.668;23.298;2023-03-04T02:41:17;94639.84;;;12.08;51.31
35676;BME280;21790;42.668;23.298;2023-03-04T02:43:45;94639.72;;;12.02;51.17
35676;BME280;21790;42.668;23.298;2023-03-04T02:46:12;94632.59;;;11.87;51.44
35676;BME280;21790;42.668;23.298;2023-03-04T02:48:37;94633.72;;;11.80;51.52
35676;BME280;21790;42.668;23.298;2023-03-04T02:51:03;94629.91;;;11.78;51.93
35676;BME280;21790;42.668;23.298;2023-03-04T02:53:29;94637.94;;;11.90;51.40
35676;BME280;21790;42.668;23.298;2023-03-04T02:55:55;94634.59;;;11.86;51.65
35676;BME280;21790;42.668;23.298;2023-03-04T02:58:21;94634.91;;;11.88;51.39
35676;BME280;21790;42.668;23.298;2023-03-04T03:00:47;94638.25;;;11.92;51.23
35676;BME280;21790;42.668;23.298;2023-03-04T03:03:12;94636.91;;;11.88;51.56
35676;BME280;21790;42.668;23.298;2023-03-04T03:05:38;94635.13;;;11.76;51.63
35676;BME280;21790;42.668;23.298;2023-03-04T03:08:04;94629.38;;;11.88;51.50
35676;BME280;21790;42.668;23.298;2023-03-04T03:10:30;94636.03;;;11.72;51.81
35676;BME280;21790;42.668;23.298;2023-03-04T03:12:56;94637.13;;;11.75;51.80
35676;BME280;21790;42.668;23.298;2023-03-04T03:15:21;94640.66;;;11.76;51.66
35676;BME280;21790;42.668;23.298;2023-03-04T03:17:47;94636.91;;;11.88;51.06
35676;BME280;21790;42.668;23.298;2023-03-04T03:20:13;94642.94;;;12.01;50.90
35676;BME280;21790;42.668;23.298;2023-03-04T03:22:39;94641.56;;;12.05;50.76
35676;BME280;21790;42.668;23.298;2023-03-04T03:25:06;94640.94;;;12.01;50.94
35676;BME280;21790;42.668;23.298;2023-03-04T03:27:32;94642.84;;;11.95;51.03
35676;BME280;21790;42.668;23.298;2023-03-04T03:29:58;94647.69;;;12.09;50.47
35676;BME280;21790;42.668;23.298;2023-03-04T03:32:23;94629.41;;;12.03;50.36
35676;BME280;21790;42.668;23.298;2023-03-04T03:34:49;94627.72;;;12.05;50.50
35676;BME280;21790;42.668;23.298;2023-03-04T03:37:15;94635.06;;;11.85;50.93
35676;BME280;21790;42.668;23.298;2023-03-04T03:39:40;94641.38;;;11.85;51.05
35676;BME280;21790;42.668;23.298;2023-03-04T03:42:06;94625.13;;;11.78;51.12
35676;BME280;21790;42.668;23.298;2023-03-04T03:44:32;94624.09;;;11.90;50.72
35676;BME280;21790;42.668;23.298;2023-03-04T03:46:57;94635.94;;;11.91;50.79
35676;BME280;21790;42.668;23.298;2023-03-04T03:49:23;94631.53;;;11.84;50.88
35676;BME280;21790;42.668;23.298;2023-03-04T03:51:48;94632.34;;;11.76;51.13
35676;BME280;21790;42.668;23.298;2023-03-04T03:54:14;94619.22;;;11.85;51.17
35676;BME280;21790;42.668;23.298;2023-03-04T03:56:40;94626.13;;;11.57;51.69
35676;BME280;21790;42.668;23.298;2023-03-04T03:59:05;94627.13;;;11.45;51.61
35676;BME280;21790;42.668;23.298;2023-03-04T04:01:31;94615.94;;;11.39;51.54
35676;BME280;21790;42.668;23.298;2023-03-04T04:03:58;94610.97;;;11.43;51.55
35676;BME280;21790;42.668;23.298;2023-03-04T04:06:24;94605.78;;;11.36;51.64
35676;BME280;21790;42.668;23.298;2023-03-04T04:08:49;94601.59;;;11.41;51.68
35676;BME280;21790;42.668;23.298;2023-03-04T04:11:15;94612.34;;;11.48;51.35
35676;BME280;21790;42.668;23.298;2023-03-04T04:13:41;94608.94;;;11.53;51.05
35676;BME280;21790;42.668;23.298;2023-03-04T04:16:07;94606.34;;;11.49;51.00
35676;BME280;21790;42.668;23.298;2023-03-04T04:18:33;94611.75;;;11.44;51.33
35676;BME280;21790;42.668;23.298;2023-03-04T04:20:58;94609.03;;;11.58;50.96
35676;BME280;21790;42.668;23.298;2023-03-04T04:23:24;94610.88;;;11.61;50.83
35676;BME280;21790;42.668;23.298;2023-03-04T04:25:50;94612.91;;;11.52;51.34
35676;BME280;21790;42.668;23.298;2023-03-04T04:28:18;94610.66;;;11.74;50.32
35676;BME280;21790;42.668;23.298;2023-03-04T04:30:44;94621.47;;;11.63;50.69
35676;BME280;21790;42.668;23.298;2023-03-04T04:33:10;94614.72;;;11.64;50.69
35676;BME280;21790;42.668;23.298;2023-03-04T04:35:35;94624.41;;;11.59;50.70
35676;BME280;21790;42.668;23.298;2023-03-04T04:38:03;94614.22;;;11.42;51.00
35676;BME280;21790;42.668;23.298;2023-03-04T04:40:29;94609.31;;;11.37;50.96
35676;BME280;21790;42.668;23.298;2023-03-04T04:42:54;94618.13;;;11.26;51.19
35676;BME280;21790;42.668;23.298;2023-03-04T04:45:20;94614.91;;;11.27;51.16
35676;BME280;21790;42.668;23.298;2023-03-04T04:47:45;94598.69;;;11.11;51.48
35676;BME280;21790;42.668;23.298;2023-03-04T04:50:11;94614.34;;;11.14;51.33
35676;BME280;21790;42.668;23.298;2023-03-04T04:52:36;94611.88;;;11.16;51.23
35676;BME280;21790;42.668;23.298;2023-03-04T04:55:02;94606.72;;;11.00;51.65
35676;BME280;21790;42.668;23.298;2023-03-04T04:57:28;94619.28;;;11.10;51.13
35676;BME280;21790;42.668;23.298;2023-03-04T04:59:53;94619.19;;;10.96;51.50
35676;BME280;21790;42.668;23.298;2023-03-04T05:02:19;94622.72;;;10.96;51.37
35676;BME280;21790;42.668;23.298;2023-03-04T05:04:44;94626.41;;;10.84;51.97
35676;BME280;21790;42.668;23.298;2023-03-04T05:07:10;94629.50;;;10.77;52.15
35676;BME280;21790;42.668;23.298;2023-03-04T05:09:35;94637.31;;;10.87;51.75
35676;BME280;21790;42.668;23.298;2023-03-04T05:12:01;94630.34;;;11.10;51.21
35676;BME280;21790;42.668;23.298;2023-03-04T05:14:26;94640.06;;;11.39;50.29
35676;BME280;21790;42.668;23.298;2023-03-04T05:16:52;94640.06;;;11.29;50.55
35676;BME280;21790;42.668;23.298;2023-03-04T05:19:18;94637.94;;;11.24;50.81
35676;BME280;21790;42.668;23.298;2023-03-04T05:21:44;94640.97;;;11.36;50.39
35676;BME280;21790;42.668;23.298;2023-03-04T05:24:09;94637.63;;;11.31;50.41
35676;BME280;21790;42.668;23.298;2023-03-04T05:26:35;94639.72;;;11.04;51.18
35676;BME280;21790;42.668;23.298;2023-03-04T05:29:01;94638.69;;;10.92;51.58
35676;BME280;21790;42.668;23.298;2023-03-04T05:31:26;94648.16;;;11.09;51.29
35676;BME280;21790;42.668;23.298;2023-03-04T05:33:52;94645.31;;;10.85;51.64
35676;BME280;21790;42.668;23.298;2023-03-04T05:36:18;94650.66;;;10.89;52.11
35676;BME280;21790;42.668;23.298;2023-03-04T05:38:43;94646.47;;;11.03;51.38
35676;BME280;21790;42.668;23.298;2023-03-04T05:41:09;94650.34;;;10.96;51.85
35676;BME280;21790;42.668;23.298;2023-03-04T05:43:35;94663.19;;;11.08;51.75
35676;BME280;21790;42.668;23.298;2023-03-04T05:46:03;94659.03;;;11.22;50.99
35676;BME280;21790;42.668;23.298;2023-03-04T05:48:29;94658.66;;;11.38;50.76
35676;BME280;21790;42.668;23.298;2023-03-04T05:50:56;94661.13;;;11.69;49.89
35676;BME280;21790;42.668;23.298;2023-03-04T05:53:23;94658.47;;;11.42;50.30
35676;BME280;21790;42.668;23.298;2023-03-04T05:55:49;94664.91;;;11.48;50.09
35676;BME280;21790;42.668;23.298;2023-03-04T05:58:15;94652.66;;;11.40;50.48
35676;BME280;21790;42.668;23.298;2023-03-04T06:00:40;94664.97;;;11.39;50.64
35676;BME280;21790;42.668;23.298;2023-03-04T06:03:06;94670.50;;;11.39;50.58
35676;BME280;21790;42.668;23.298;2023-03-04T06:05:31;94666.63;;;11.45;50.54
35676;BME280;21790;42.668;23.298;2023-03-04T06:07:57;94681.81;;;11.50;50.56
35676;BME280;21790;42.668;23.298;2023-03-04T06:10:22;94666.41;;;11.58;50.69
35676;BME280;21790;42.668;23.298;2023-03-04T06:12:48;94675.25;;;11.71;50.59
35676;BME280;21790;42.668;23.298;2023-03-04T06:15:14;94679.88;;;11.74;50.47
35676;BME280;21790;42.668;23.298;2023-03-04T06:17:40;94680.19;;;11.76;50.70
35676;BME280;21790;42.668;23.298;2023-03-04T06:20:07;94675.09;;;11.84;50.65
35676;BME280;21790;42.668;23.298;2023-03-04T06:22:33;94678.00;;;11.80;50.66
35676;BME280;21790;42.668;23.298;2023-03-04T06:24:59;94680.94;;;12.00;50.79
35676;BME280;21790;42.668;23.298;2023-03-04T06:27:25;94685.06;;;11.81;51.07
35676;BME280;21790;42.668;23.298;2023-03-04T06:29:51;94675.16;;;11.89;50.86
35676;BME280;21790;42.668;23.298;2023-03-04T06:32:16;94682.63;;;11.83;51.21
35676;BME280;21790;42.668;23.298;2023-03-04T06:34:42;94684.38;;;11.95;51.39
35676;BME280;21790;42.668;23.298;2023-03-04T06:37:07;94684.38;;;11.95;51.22
35676;BME280;21790;42.668;23.298;2023-03-04T06:39:33;94681.19;;;12.11;51.04
35676;BME280;21790;42.668;23.298;2023-03-04T06:41:58;94678.88;;;12.34;50.35
35676;BME280;21790;42.668;23.298;2023-03-04T06:44:24;94694.75;;;12.33;50.66
35676;BME280;21790;42.668;23.298;2023-03-04T06:46:49;94690.38;;;12.41;50.70
35676;BME280;21790;42.668;23.298;2023-03-04T06:49:15;94690.03;;;12.25;50.91
35676;BME280;21790;42.668;23.298;2023-03-04T06:51:40;94693.03;;;12.36;50.78
35676;BME280;21790;42.668;23.298;2023-03-04T06:54:06;94697.56;;;12.48;50.63
35676;BME280;21790;42.668;23.298;2023-03-04T06:56:31;94694.41;;;12.55;49.97
35676;BME280;21790;42.668;23.298;2023-03-04T06:58:57;94690.06;;;12.39;50.34
35676;BME280;21790;42.668;23.298;2023-03-04T07:01:25;94691.06;;;12.51;50.48
35676;BME280;21790;42.668;23.298;2023-03-04T07:03:51;94697.41;;;12.66;49.79
35676;BME280;21790;42.668;23.298;2023-03-04T07:06:20;94690.69;;;12.82;49.44
35676;BME280;21790;42.668;23.298;2023-03-04T07:08:46;94694.38;;;12.64;49.34
35676;BME280;21790;42.668;23.298;2023-03-04T07:11:12;94703.91;;;12.63;48.98
35676;BME280;21790;42.668;23.298;2023-03-04T07:13:38;94695.69;;;12.54;49.47
35676;BME280;21790;42.668;23.298;2023-03-04T07:16:06;94702.81;;;12.46;49.32
35676;BME280;21790;42.668;23.298;2023-03-04T07:18:32;94703.13;;;12.48;49.36
35676;BME280;21790;42.668;23.298;2023-03-04T07:20:58;94710.19;;;12.49;49.40
35676;BME280;21790;42.668;23.298;2023-03-04T07:23:23;94703.72;;;12.67;48.80
35676;BME280;21790;42.668;23.298;2023-03-04T07:25:49;94701.47;;;12.94;48.40
35676;BME280;21790;42.668;23.298;2023-03-04T07:28:16;94695.50;;;13.90;59.63
35676;BME280;21790;42.668;23.298;2023-03-04T07:30:42;94700.16;;;14.33;50.23
35676;BME280;21790;42.668;23.298;2023-03-04T07:33:07;94697.81;;;14.67;47.65
35676;BME280;21790;42.668;23.298;2023-03-04T07:35:33;94699.56;;;14.90;44.80
35676;BME280;21790;42.668;23.298;2023-03-04T07:37:59;94685.97;;;14.51;45.05
35676;BME280;21790;42.668;23.298;2023-03-04T07:40:24;94697.03;;;14.46;45.09
35676;BME280;21790;42.668;23.298;2023-03-04T07:42:51;94703.81;;;14.24;45.00
35676;BME280;21790;42.668;23.298;2023-03-04T07:45:17;94690.44;;;14.08;45.45
35676;BME280;21790;42.668;23.298;2023-03-04T07:47:43;94698.91;;;13.99;46.08
35676;BME280;21790;42.668;23.298;2023-03-04T07:50:10;94685.94;;;13.91;46.01
35676;BME280;21790;42.668;23.298;2023-03-04T07:52:44;94692.81;;;13.80;46.74
35676;BME280;21790;42.668;23.298;2023-03-04T07:55:12;94685.34;;;13.37;47.57
35676;BME280;21790;42.668;23.298;2023-03-04T07:57:42;94685.25;;;13.17;48.10
35676;BME280;21790;42.668;23.298;2023-03-04T08:00:10;94679.06;;;13.71;46.81
35676;BME280;21790;42.668;23.298;2023-03-04T08:02:36;94691.41;;;13.85;45.98
35676;BME280;21790;42.668;23.298;2023-03-04T08:05:04;94685.72;;;13.94;45.99
35676;BME280;21790;42.668;23.298;2023-03-04T08:07:30;94692.44;;;13.53;46.16
35676;BME280;21790;42.668;23.298;2023-03-04T08:09:55;94687.06;;;13.49;46.57
35676;BME280;21790;42.668;23.298;2023-03-04T08:12:21;94699.13;;;13.46;46.54
35676;BME280;21790;42.668;23.298;2023-03-04T08:14:49;94695.00;;;13.27;47.02
35676;BME280;21790;42.668;23.298;2023-03-04T08:17:15;94693.66;;;13.08;47.64
35676;BME280;21790;42.668;23.298;2023-03-04T08:19:40;94692.28;;;12.88;47.61
35676;BME280;21790;42.668;23.298;2023-03-04T08:22:09;94687.13;;;13.11;47.55
35676;BME280;21790;42.668;23.298;2023-03-04T08:24:35;94695.03;;;13.12;47.41
35676;BME280;21790;42.668;23.298;2023-03-04T08:27:01;94690.81;;;13.17;47.33
35676;BME280;21790;42.668;23.298;2023-03-04T08:29:26;94693.09;;;13.18;47.51
35676;BME280;21790;42.668;23.298;2023-03-04T08:31:53;94676.66;;;13.29;47.45
35676;BME280;21790;42.668;23.298;2023-03-04T08:34:22;94680.47;;;13.47;47.32
35676;BME280;21790;42.668;23.298;2023-03-04T08:36:48;94682.56;;;13.37;47.31
35676;BME280;21790;42.668;23.298;2023-03-04T08:39:15;94683.41;;;13.43;47.40
35676;BME280;21790;42.668;23.298;2023-03-04T08:41:41;94675.09;;;13.43;46.93
35676;BME280;21790;42.668;23.298;2023-03-04T08:44:12;94667.88;;;13.66;46.59
35676;BME280;21790;42.668;23.298;2023-03-04T08:46:39;94669.53;;;13.58;46.15
35676;BME280;21790;42.668;23.298;2023-03-04T08:49:06;94672.66;;;13.65;46.13
35676;BME280;21790;42.668;23.298;2023-03-04T08:51:31;94669.25;;;13.56;45.91
35676;BME280;21790;42.668;23.298;2023-03-04T08:54:00;94674.88;;;13.61;45.95
35676;BME280;21790;42.668;23.298;2023-03-04T08:56:26;94668.94;;;13.68;45.93
35676;BME280;21790;42.668;23.298;2023-03-04T08:58:51;94669.38;;;13.81;45.88
35676;BME280;21790;42.668;23.298;2023-03-04T09:01:19;94666.41;;;13.85;45.93
35676;BME280;21790;42.668;23.298;2023-03-04T09:16:40;94662.66;;;14.08;44.62
35676;BME280;21790;42.668;23.298;2023-03-04T09:19:10;94657.59;;;14.27;44.46
35676;BME280;21790;42.668;23.298;2023-03-04T09:21:44;94664.50;;;14.32;44.07
35676;BME280;21790;42.668;23.298;2023-03-04T09:24:11;94650.59;;;14.32;44.29
35676;BME280;21790;42.668;23.298;2023-03-04T09:26:37;94655.22;;;14.81;55.10
35676;BME280;21790;42.668;23.298;2023-03-04T09:29:04;94650.69;;;15.09;44.64
35676;BME280;21790;42.668;23.298;2023-03-04T09:31:31;94637.03;;;15.11;43.25
35676;BME280;21790;42.668;23.298;2023-03-04T09:33:57;94651.41;;;15.04;43.19
35676;BME280;21790;42.668;23.298;2023-03-04T09:39:05;94621.19;;;14.91;43.25
35676;BME280;21790;42.668;23.298;2023-03-04T09:41:47;94638.72;;;15.55;45.52
35676;BME280;21790;42.668;23.298;2023-03-04T09:44:15;94635.56;;;15.47;43.66
35676;BME280;21790;42.668;23.298;2023-03-04T09:46:47;94635.19;;;15.60;43.01
35676;BME280;21790;42.668;23.298;2023-03-04T09:49:13;94604.59;;;15.02;42.52
35676;BME280;21790;42.668;23.298;2023-03-04T09:51:48;94637.88;;;15.48;43.33
35676;BME280;21790;42.668;23.298;2023-03-04T09:54:53;94635.88;;;15.23;43.42
35676;BME280;21790;42.668;23.298;2023-03-04T10:00:41;94629.13;;;14.52;43.58
35676;BME280;21790;42.668;23.298;2023-03-04T10:11:47;94619.69;;;14.44;44.99
35676;BME280;21790;42.668;23.298;2023-03-04T10:17:23;94613.53;;;14.86;42.88
35676;BME280;21790;42.668;23.298;2023-03-04T10:20:23;94606.06;;;14.98;42.46
35676;BME280;21790;42.668;23.298;2023-03-04T10:23:17;94599.34;;;15.10;41.97
35676;BME280;21790;42.668;23.298;2023-03-04T10:25:47;94604.69;;;15.14;42.01
35676;BME280;21790;42.668;23.298;2023-03-04T10:28:37;94598.03;;;15.05;41.92
35676;BME280;21790;42.668;23.298;2023-03-04T10:34:36;94584.66;;;14.78;42.88
35676;BME280;21790;42.668;23.298;2023-03-04T10:37:08;94592.13;;;14.67;43.79
35676;BME280;21790;42.668;23.298;2023-03-04T10:39:45;94580.78;;;14.44;44.58
35676;BME280;21790;42.668;23.298;2023-03-04T10:42:26;94579.22;;;14.69;44.19
35676;BME280;21790;42.668;23.298;2023-03-04T10:44:59;94571.72;;;14.75;43.31
35676;BME280;21790;42.668;23.298;2023-03-04T10:47:27;94570.47;;;14.76;43.21
35676;BME280;21790;42.668;23.298;2023-03-04T10:49:55;94568.47;;;14.56;43.41
35676;BME280;21790;42.668;23.298;2023-03-04T10:52:40;94565.28;;;15.21;54.74
35676;BME280;21790;42.668;23.298;2023-03-04T10:55:16;94562.06;;;15.33;46.01
35676;BME280;21790;42.668;23.298;2023-03-04T10:57:47;94559.28;;;15.33;44.58
35676;BME280;21790;42.668;23.298;2023-03-04T11:02:43;94560.16;;;14.82;44.17
35676;BME280;21790;42.668;23.298;2023-03-04T11:05:23;94551.28;;;14.78;44.13
35676;BME280;21790;42.668;23.298;2023-03-04T11:07:52;94543.03;;;14.63;44.72
35676;BME280;21790;42.668;23.298;2023-03-04T11:10:29;94547.44;;;14.76;44.07
35676;BME280;21790;42.668;23.298;2023-03-04T11:15:25;94531.25;;;14.74;43.67
35676;BME280;21790;42.668;23.298;2023-03-04T11:18:11;94532.97;;;14.97;43.20
35676;BME280;21790;42.668;23.298;2023-03-04T11:20:43;94524.44;;;14.75;44.11
35676;BME280;21790;42.668;23.298;2023-03-04T11:23:18;94517.03;;;14.98;43.30
35676;BME280;21790;42.668;23.298;2023-03-04T11:25:57;94521.88;;;15.03;42.85
35676;BME280;21790;42.668;23.298;2023-03-04T11:31:04;94509.47;;;15.04;43.25
35676;BME280;21790;42.668;23.298;2023-03-04T11:33:52;94510.81;;;15.14;42.89
35676;BME280;21790;42.668;23.298;2023-03-04T11:39:16;94501.38;;;15.06;43.49
35676;BME280;21790;42.668;23.298;2023-03-04T11:41:54;94497.75;;;14.89;43.68
35676;BME280;21790;42.668;23.298;2023-03-04T11:44:22;94503.06;;;14.92;43.33
35676;BME280;21790;42.668;23.298;2023-03-04T11:52:47;94481.13;;;15.05;42.77
35676;BME280;21790;42.668;23.298;2023-03-04T11:58:22;94474.69;;;14.83;42.84
35676;BME280;21790;42.668;23.298;2023-03-04T12:01:07;94489.97;;;14.98;42.96
35676;BME280;21790;42.668;23.298;2023-03-04T12:03:49;94483.94;;;14.74;43.15
35676;BME280;21790;42.668;23.298;2023-03-04T12:07:36;94483.09;;;14.94;43.16
35676;BME280;21790;42.668;23.298;2023-03-04T12:09:53;94474.34;;;15.12;42.90
35676;BME280;21790;42.668;23.298;2023-03-04T12:15:01;94467.00;;;15.09;43.29
35676;BME280;21790;42.668;23.298;2023-03-04T12:28:18;94454.75;;;15.32;43.28
35676;BME280;21790;42.668;23.298;2023-03-04T12:39:25;94444.31;;;15.70;43.83
35676;BME280;21790;42.668;23.298;2023-03-04T12:45:43;94444.53;;;15.61;42.88
35676;BME280;21790;42.668;23.298;2023-03-04T12:47:46;94443.56;;;15.21;43.10
35676;BME280;21790;42.668;23.298;2023-03-04T12:55:43;94434.59;;;15.48;42.80
35676;BME280;21790;42.668;23.298;2023-03-04T12:58:20;94428.25;;;15.48;42.88
35676;BME280;21790;42.668;23.298;2023-03-04T13:00:57;94425.28;;;15.63;42.74
35676;BME280;21790;42.668;23.298;2023-03-04T13:10:03;94406.59;;;15.74;41.50
35676;BME280;21790;42.668;23.298;2023-03-04T13:12:47;94408.59;;;15.68;41.52
35676;BME280;21790;42.668;23.298;2023-03-04T13:17:52;94401.03;;;15.74;41.64
35676;BME280;21790;42.668;23.298;2023-03-04T13:25:48;94396.59;;;14.92;43.23
35676;BME280;21790;42.668;23.298;2023-03-04T13:28:24;94394.53;;;14.87;43.42
35676;BME280;21790;42.668;23.298;2023-03-04T13:43:43;94389.41;;;15.22;41.95
35676;BME280;21790;42.668;23.298;2023-03-04T14:07:00;94368.97;;;14.46;44.77
35676;BME280;21790;42.668;23.298;2023-03-04T14:09:28;94363.34;;;14.72;44.17
35676;BME280;21790;42.668;23.298;2023-03-04T14:12:00;94360.47;;;15.03;43.48
35676;BME280;21790;42.668;23.298;2023-03-04T14:14:39;94368.50;;;14.95;43.29
35676;BME280;21790;42.668;23.298;2023-03-04T14:17:16;94361.66;;;14.48;44.33
35676;BME280;21790;42.668;23.298;2023-03-04T14:19:45;94347.84;;;14.59;52.76
35676;BME280;21790;42.668;23.298;2023-03-04T14:24:56;94346.81;;;15.64;43.98
35676;BME280;21790;42.668;23.298;2023-03-04T14:27:21;94352.09;;;15.57;43.66
35676;BME280;21790;42.668;23.298;2023-03-04T14:29:54;94342.78;;;15.71;43.24
35676;BME280;21790;42.668;23.298;2023-03-04T14:32:20;94343.50;;;15.55;43.39
35676;BME280;21790;42.668;23.298;2023-03-04T14:34:48;94337.59;;;15.41;42.82
35676;BME280;21790;42.668;23.298;2023-03-04T14:37:26;94340.47;;;15.58;42.59
35676;BME280;21790;42.668;23.298;2023-03-04T14:39:57;94341.91;;;15.42;42.99
35676;BME280;21790;42.668;23.298;2023-03-04T14:42:35;94337.69;;;15.58;43.14
35676;BME280;21790;42.668;23.298;2023-03-04T14:45:01;94336.41;;;15.54;43.28
35676;BME280;21790;42.668;23.298;2023-03-04T14:47:40;94337.13;;;15.48;42.62
35676;BME280;21790;42.668;23.298;2023-03-04T14:50:16;94318.88;;;15.42;42.85
35676;BME280;21790;42.668;23.298;2023-03-04T14:52:45;94325.69;;;15.41;43.36
35676;BME280;21790;42.668;23.298;2023-03-04T14:55:21;94319.72;;;15.65;43.32
35676;BME280;21790;42.668;23.298;2023-03-04T14:57:50;94327.53;;;15.55;43.83
35676;BME280;21790;42.668;23.298;2023-03-04T15:00:30;94307.97;;;15.38;43.65
35676;BME280;21790;42.668;23.298;2023-03-04T15:03:02;94324.75;;;15.61;43.62
35676;BME280;21790;42.668;23.298;2023-03-04T15:05:29;94314.13;;;15.54;43.39
35676;BME280;21790;42.668;23.298;2023-03-04T15:07:55;94302.41;;;15.49;43.52
35676;BME280;21790;42.668;23.298;2023-03-04T15:10:31;94313.66;;;15.83;43.21
35676;BME280;21790;42.668;23.298;2023-03-04T15:13:00;94305.50;;;15.52;43.40
35676;BME280;21790;42.668;23.298;2023-03-04T15:15:31;94305.50;;;15.57;43.51
35676;BME280;21790;42.668;23.298;2023-03-04T15:17:59;94304.72;;;15.51;43.62